sensor_id;sensor_type;location;lat;lon;timestamp;P1;durP1;ratioP1;P2;durP2;ratioP2
66087;SDS011;52872;52.994;6.940;2022-11-20T00:01:05;19.70;;;13.85;;
66087;SDS011;52872;52.994;6.940;2022-11-20T00:03:42;18.75;;;13.35;;
66087;SDS011;52872;52.994;6.940;2022-11-20T00:06:11;23.30;;;15.05;;
66087;SDS011;52872;52.994;6.940;2022-11-20T00:08:43;22.38;;;15.60;;
66087;SDS011;52872;52.994;6.940;2022-11-20T00:11:14;20.55;;;13.73;;
66087;SDS011;52872;52.994;6.940;2022-11-20T00:13:47;21.13;;;14.88;;
66087;SDS011;52872;52.994;6.940;2022-11-20T00:16:16;22.58;;;14.68;;
66087;SDS011;52872;52.994;6.940;2022-11-20T00:18:44;20.23;;;15.45;;
66087;SDS011;52872;52.994;6.940;2022-11-20T00:21:16;21.42;;;14.85;;
66087;SDS011;52872;52.994;6.940;2022-11-20T00:23:44;20.67;;;15.17;;
66087;SDS011;52872;52.994;6.940;2022-11-20T00:26:13;22.25;;;15.05;;
66087;SDS011;52872;52.994;6.940;2022-11-20T00:28:41;22.73;;;15.65;;
66087;SDS011;52872;52.994;6.940;2022-11-20T00:31:11;23.75;;;14.68;;
66087;SDS011;52872;52.994;6.940;2022-11-20T00:33:39;21.55;;;14.80;;
66087;SDS011;52872;52.994;6.940;2022-11-20T00:36:08;21.77;;;15.10;;
66087;SDS011;52872;52.994;6.940;2022-11-20T00:38:37;22.65;;;16.08;;
66087;SDS011;52872;52.994;6.940;2022-11-20T00:41:06;23.73;;;14.90;;
66087;SDS011;52872;52.994;6.940;2022-11-20T00:43:35;20.08;;;14.73;;
66087;SDS011;52872;52.994;6.940;2022-11-20T00:46:07;21.52;;;14.93;;
66087;SDS011;52872;52.994;6.940;2022-11-20T00:48:36;23.30;;;15.38;;
66087;SDS011;52872;52.994;6.940;2022-11-20T00:51:03;19.15;;;13.40;;
66087;SDS011;52872;52.994;6.940;2022-11-20T00:53:31;19.70;;;13.32;;
66087;SDS011;52872;52.994;6.940;2022-11-20T00:55:59;21.15;;;13.48;;
66087;SDS011;52872;52.994;6.940;2022-11-20T00:58:31;19.73;;;13.60;;
66087;SDS011;52872;52.994;6.940;2022-11-20T01:01:07;18.40;;;13.52;;
66087;SDS011;52872;52.994;6.940;2022-11-20T01:03:39;18.40;;;13.57;;
66087;SDS011;52872;52.994;6.940;2022-11-20T01:08:47;20.27;;;14.35;;
66087;SDS011;52872;52.994;6.940;2022-11-20T01:11:19;19.75;;;13.07;;
66087;SDS011;52872;52.994;6.940;2022-11-20T01:13:48;18.05;;;12.32;;
66087;SDS011;52872;52.994;6.940;2022-11-20T01:18:51;17.08;;;12.48;;
66087;SDS011;52872;52.994;6.940;2022-11-20T01:21:21;17.40;;;12.45;;
66087;SDS011;52872;52.994;6.940;2022-11-20T01:23:51;18.08;;;12.80;;
66087;SDS011;52872;52.994;6.940;2022-11-20T01:26:19;18.15;;;11.95;;
66087;SDS011;52872;52.994;6.940;2022-11-20T01:28:48;15.73;;;12.18;;
66087;SDS011;52872;52.994;6.940;2022-11-20T01:31:17;16.50;;;11.98;;
66087;SDS011;52872;52.994;6.940;2022-11-20T01:33:53;16.90;;;11.63;;
66087;SDS011;52872;52.994;6.940;2022-11-20T01:36:23;15.10;;;10.90;;
66087;SDS011;52872;52.994;6.940;2022-11-20T01:38:52;16.27;;;11.60;;
66087;SDS011;52872;52.994;6.940;2022-11-20T01:41:20;16.52;;;11.88;;
66087;SDS011;52872;52.994;6.940;2022-11-20T01:44:07;16.85;;;11.32;;
66087;SDS011;52872;52.994;6.940;2022-11-20T01:46:38;17.17;;;11.30;;
66087;SDS011;52872;52.994;6.940;2022-11-20T01:49:15;14.63;;;11.25;;
66087;SDS011;52872;52.994;6.940;2022-11-20T01:51:57;17.98;;;11.25;;
66087;SDS011;52872;52.994;6.940;2022-11-20T01:54:29;17.08;;;11.82;;
66087;SDS011;52872;52.994;6.940;2022-11-20T01:57:09;14.30;;;11.27;;
66087;SDS011;52872;52.994;6.940;2022-11-20T01:59:39;15.80;;;11.00;;
66087;SDS011;52872;52.994;6.940;2022-11-20T02:02:11;13.98;;;10.45;;
66087;SDS011;52872;52.994;6.940;2022-11-20T02:04:38;17.05;;;11.38;;
66087;SDS011;52872;52.994;6.940;2022-11-20T02:07:05;18.58;;;11.30;;
66087;SDS011;52872;52.994;6.940;2022-11-20T02:09:32;15.98;;;11.07;;
66087;SDS011;52872;52.994;6.940;2022-11-20T02:11:59;16.83;;;10.57;;
66087;SDS011;52872;52.994;6.940;2022-11-20T02:14:28;18.20;;;11.90;;
66087;SDS011;52872;52.994;6.940;2022-11-20T02:16:55;16.77;;;11.45;;
66087;SDS011;52872;52.994;6.940;2022-11-20T02:19:23;15.98;;;11.07;;
66087;SDS011;52872;52.994;6.940;2022-11-20T02:24:26;16.65;;;11.65;;
66087;SDS011;52872;52.994;6.940;2022-11-20T02:32:04;15.00;;;10.65;;
66087;SDS011;52872;52.994;6.940;2022-11-20T02:34:31;17.00;;;11.45;;
66087;SDS011;52872;52.994;6.940;2022-11-20T02:36:58;13.95;;;10.82;;
66087;SDS011;52872;52.994;6.940;2022-11-20T02:39:26;17.02;;;11.15;;
66087;SDS011;52872;52.994;6.940;2022-11-20T02:41:54;15.35;;;10.65;;
66087;SDS011;52872;52.994;6.940;2022-11-20T02:44:22;16.88;;;11.02;;
66087;SDS011;52872;52.994;6.940;2022-11-20T02:46:49;18.48;;;11.07;;
66087;SDS011;52872;52.994;6.940;2022-11-20T02:49:16;16.05;;;10.77;;
66087;SDS011;52872;52.994;6.940;2022-11-20T02:51:43;17.73;;;11.35;;
66087;SDS011;52872;52.994;6.940;2022-11-20T02:54:10;17.92;;;12.20;;
66087;SDS011;52872;52.994;6.940;2022-11-20T02:56:38;15.15;;;11.07;;
66087;SDS011;52872;52.994;6.940;2022-11-20T02:59:05;17.60;;;10.60;;
66087;SDS011;52872;52.994;6.940;2022-11-20T03:01:33;19.02;;;10.88;;
66087;SDS011;52872;52.994;6.940;2022-11-20T03:04:00;13.73;;;9.55;;
66087;SDS011;52872;52.994;6.940;2022-11-20T03:06:27;15.73;;;10.80;;
66087;SDS011;52872;52.994;6.940;2022-11-20T03:08:54;12.63;;;9.52;;
66087;SDS011;52872;52.994;6.940;2022-11-20T03:11:21;17.38;;;10.95;;
66087;SDS011;52872;52.994;6.940;2022-11-20T03:13:47;16.92;;;11.52;;
66087;SDS011;52872;52.994;6.940;2022-11-20T03:16:18;15.45;;;10.32;;
66087;SDS011;52872;52.994;6.940;2022-11-20T03:18:46;14.88;;;10.60;;
66087;SDS011;52872;52.994;6.940;2022-11-20T03:21:14;16.50;;;11.05;;
66087;SDS011;52872;52.994;6.940;2022-11-20T03:23:42;17.02;;;11.65;;
66087;SDS011;52872;52.994;6.940;2022-11-20T03:26:14;15.00;;;10.52;;
66087;SDS011;52872;52.994;6.940;2022-11-20T03:28:41;15.38;;;10.75;;
66087;SDS011;52872;52.994;6.940;2022-11-20T03:31:13;14.90;;;10.90;;
66087;SDS011;52872;52.994;6.940;2022-11-20T03:33:41;16.23;;;11.57;;
66087;SDS011;52872;52.994;6.940;2022-11-20T03:36:09;13.73;;;9.88;;
66087;SDS011;52872;52.994;6.940;2022-11-20T03:38:38;15.45;;;10.70;;
66087;SDS011;52872;52.994;6.940;2022-11-20T03:41:10;16.60;;;10.80;;
66087;SDS011;52872;52.994;6.940;2022-11-20T03:43:39;17.10;;;11.40;;
66087;SDS011;52872;52.994;6.940;2022-11-20T03:46:06;17.63;;;11.93;;
66087;SDS011;52872;52.994;6.940;2022-11-20T03:48:34;15.10;;;11.57;;
66087;SDS011;52872;52.994;6.940;2022-11-20T03:51:07;15.02;;;10.82;;
66087;SDS011;52872;52.994;6.940;2022-11-20T03:53:42;14.70;;;10.40;;
66087;SDS011;52872;52.994;6.940;2022-11-20T03:56:11;23.27;;;11.82;;
66087;SDS011;52872;52.994;6.940;2022-11-20T03:58:41;15.98;;;11.45;;
66087;SDS011;52872;52.994;6.940;2022-11-20T04:01:13;14.55;;;10.63;;
66087;SDS011;52872;52.994;6.940;2022-11-20T04:03:42;14.88;;;11.27;;
66087;SDS011;52872;52.994;6.940;2022-11-20T04:08:40;14.55;;;10.63;;
66087;SDS011;52872;52.994;6.940;2022-11-20T04:11:11;14.98;;;10.38;;
66087;SDS011;52872;52.994;6.940;2022-11-20T04:13:46;17.30;;;11.48;;
66087;SDS011;52872;52.994;6.940;2022-11-20T04:16:15;14.32;;;10.43;;
66087;SDS011;52872;52.994;6.940;2022-11-20T04:18:43;16.05;;;10.43;;
66087;SDS011;52872;52.994;6.940;2022-11-20T04:21:10;15.48;;;11.63;;
66087;SDS011;52872;52.994;6.940;2022-11-20T04:23:38;13.13;;;10.18;;
66087;SDS011;52872;52.994;6.940;2022-11-20T04:26:06;15.93;;;11.32;;
66087;SDS011;52872;52.994;6.940;2022-11-20T04:28:35;13.00;;;10.63;;
66087;SDS011;52872;52.994;6.940;2022-11-20T04:31:05;15.13;;;10.60;;
66087;SDS011;52872;52.994;6.940;2022-11-20T04:33:34;14.07;;;11.20;;
66087;SDS011;52872;52.994;6.940;2022-11-20T04:36:06;16.38;;;11.40;;
66087;SDS011;52872;52.994;6.940;2022-11-20T04:38:37;17.67;;;11.80;;
66087;SDS011;52872;52.994;6.940;2022-11-20T04:41:08;15.88;;;11.65;;
66087;SDS011;52872;52.994;6.940;2022-11-20T04:43:40;15.93;;;11.07;;
66087;SDS011;52872;52.994;6.940;2022-11-20T04:46:07;17.10;;;11.27;;
66087;SDS011;52872;52.994;6.940;2022-11-20T04:48:34;15.00;;;10.77;;
66087;SDS011;52872;52.994;6.940;2022-11-20T04:51:05;16.33;;;10.98;;
66087;SDS011;52872;52.994;6.940;2022-11-20T04:53:32;16.38;;;10.98;;
66087;SDS011;52872;52.994;6.940;2022-11-20T04:56:06;13.95;;;10.63;;
66087;SDS011;52872;52.994;6.940;2022-11-20T04:58:34;14.65;;;10.52;;
66087;SDS011;52872;52.994;6.940;2022-11-20T05:01:10;14.05;;;10.02;;
66087;SDS011;52872;52.994;6.940;2022-11-20T05:03:42;14.95;;;10.88;;
66087;SDS011;52872;52.994;6.940;2022-11-20T05:06:11;16.33;;;11.82;;
66087;SDS011;52872;52.994;6.940;2022-11-20T05:08:39;15.85;;;11.15;;
66087;SDS011;52872;52.994;6.940;2022-11-20T05:11:08;14.52;;;10.57;;
66087;SDS011;52872;52.994;6.940;2022-11-20T05:13:37;16.50;;;10.60;;
66087;SDS011;52872;52.994;6.940;2022-11-20T05:16:08;16.20;;;11.23;;
66087;SDS011;52872;52.994;6.940;2022-11-20T05:18:37;14.05;;;10.55;;
66087;SDS011;52872;52.994;6.940;2022-11-20T05:21:04;14.93;;;10.10;;
66087;SDS011;52872;52.994;6.940;2022-11-20T05:23:32;16.55;;;10.95;;
66087;SDS011;52872;52.994;6.940;2022-11-20T05:26:00;16.88;;;10.48;;
66087;SDS011;52872;52.994;6.940;2022-11-20T05:28:28;14.45;;;10.80;;
66087;SDS011;52872;52.994;6.940;2022-11-20T05:30:56;15.10;;;10.57;;
66087;SDS011;52872;52.994;6.940;2022-11-20T05:33:29;16.02;;;11.07;;
66087;SDS011;52872;52.994;6.940;2022-11-20T05:35:59;13.55;;;10.63;;
66087;SDS011;52872;52.994;6.940;2022-11-20T05:38:27;14.40;;;10.52;;
66087;SDS011;52872;52.994;6.940;2022-11-20T05:40:54;16.50;;;11.82;;
66087;SDS011;52872;52.994;6.940;2022-11-20T05:43:21;16.45;;;11.25;;
66087;SDS011;52872;52.994;6.940;2022-11-20T05:45:51;13.75;;;10.60;;
66087;SDS011;52872;52.994;6.940;2022-11-20T05:48:19;15.48;;;11.07;;
66087;SDS011;52872;52.994;6.940;2022-11-20T05:50:47;13.98;;;10.38;;
66087;SDS011;52872;52.994;6.940;2022-11-20T05:53:14;16.48;;;11.02;;
66087;SDS011;52872;52.994;6.940;2022-11-20T05:55:41;13.73;;;10.20;;
66087;SDS011;52872;52.994;6.940;2022-11-20T05:58:08;15.98;;;10.57;;
66087;SDS011;52872;52.994;6.940;2022-11-20T06:00:35;14.73;;;11.02;;
66087;SDS011;52872;52.994;6.940;2022-11-20T06:03:02;15.18;;;10.65;;
66087;SDS011;52872;52.994;6.940;2022-11-20T06:05:29;17.55;;;11.55;;
66087;SDS011;52872;52.994;6.940;2022-11-20T06:07:56;16.20;;;10.93;;
66087;SDS011;52872;52.994;6.940;2022-11-20T06:10:23;14.73;;;10.88;;
66087;SDS011;52872;52.994;6.940;2022-11-20T06:12:50;15.05;;;11.23;;
66087;SDS011;52872;52.994;6.940;2022-11-20T06:15:17;17.10;;;11.38;;
66087;SDS011;52872;52.994;6.940;2022-11-20T06:17:43;14.70;;;9.98;;
66087;SDS011;52872;52.994;6.940;2022-11-20T06:20:10;17.48;;;10.77;;
66087;SDS011;52872;52.994;6.940;2022-11-20T06:22:37;14.43;;;10.88;;
66087;SDS011;52872;52.994;6.940;2022-11-20T06:25:04;13.18;;;9.73;;
66087;SDS011;52872;52.994;6.940;2022-11-20T06:27:31;15.05;;;10.70;;
66087;SDS011;52872;52.994;6.940;2022-11-20T06:29:58;15.48;;;10.23;;
66087;SDS011;52872;52.994;6.940;2022-11-20T06:32:25;13.32;;;10.13;;
66087;SDS011;52872;52.994;6.940;2022-11-20T06:34:52;12.70;;;9.57;;
66087;SDS011;52872;52.994;6.940;2022-11-20T06:37:19;13.27;;;9.93;;
66087;SDS011;52872;52.994;6.940;2022-11-20T06:39:46;15.00;;;11.55;;
66087;SDS011;52872;52.994;6.940;2022-11-20T06:42:13;12.68;;;9.73;;
66087;SDS011;52872;52.994;6.940;2022-11-20T06:44:40;13.00;;;10.05;;
66087;SDS011;52872;52.994;6.940;2022-11-20T06:47:06;14.48;;;10.27;;
66087;SDS011;52872;52.994;6.940;2022-11-20T06:49:33;13.30;;;10.02;;
66087;SDS011;52872;52.994;6.940;2022-11-20T06:52:00;13.55;;;10.10;;
66087;SDS011;52872;52.994;6.940;2022-11-20T06:54:27;13.43;;;9.13;;
66087;SDS011;52872;52.994;6.940;2022-11-20T06:56:54;13.68;;;9.98;;
66087;SDS011;52872;52.994;6.940;2022-11-20T06:59:21;13.23;;;9.98;;
66087;SDS011;52872;52.994;6.940;2022-11-20T07:01:48;13.73;;;10.20;;
66087;SDS011;52872;52.994;6.940;2022-11-20T07:04:15;15.63;;;10.82;;
66087;SDS011;52872;52.994;6.940;2022-11-20T07:06:42;12.45;;;9.40;;
66087;SDS011;52872;52.994;6.940;2022-11-20T07:09:09;12.13;;;9.43;;
66087;SDS011;52872;52.994;6.940;2022-11-20T07:11:38;12.85;;;9.73;;
66087;SDS011;52872;52.994;6.940;2022-11-20T07:14:05;16.15;;;11.48;;
66087;SDS011;52872;52.994;6.940;2022-11-20T07:16:32;13.10;;;10.38;;
66087;SDS011;52872;52.994;6.940;2022-11-20T07:18:58;13.32;;;9.77;;
66087;SDS011;52872;52.994;6.940;2022-11-20T07:21:25;15.07;;;9.85;;
66087;SDS011;52872;52.994;6.940;2022-11-20T07:23:52;13.98;;;9.60;;
66087;SDS011;52872;52.994;6.940;2022-11-20T07:26:19;14.15;;;10.35;;
66087;SDS011;52872;52.994;6.940;2022-11-20T07:28:46;14.05;;;10.00;;
66087;SDS011;52872;52.994;6.940;2022-11-20T07:31:13;14.82;;;10.75;;
66087;SDS011;52872;52.994;6.940;2022-11-20T07:33:44;15.00;;;10.35;;
66087;SDS011;52872;52.994;6.940;2022-11-20T07:36:11;13.95;;;9.93;;
66087;SDS011;52872;52.994;6.940;2022-11-20T07:38:38;15.95;;;11.05;;
66087;SDS011;52872;52.994;6.940;2022-11-20T07:41:05;15.80;;;10.18;;
66087;SDS011;52872;52.994;6.940;2022-11-20T07:43:31;15.15;;;10.68;;
66087;SDS011;52872;52.994;6.940;2022-11-20T07:46:03;13.05;;;10.55;;
66087;SDS011;52872;52.994;6.940;2022-11-20T07:48:30;14.60;;;10.27;;
66087;SDS011;52872;52.994;6.940;2022-11-20T07:50:57;13.38;;;10.05;;
66087;SDS011;52872;52.994;6.940;2022-11-20T07:53:24;13.95;;;10.30;;
66087;SDS011;52872;52.994;6.940;2022-11-20T07:55:51;15.20;;;10.85;;
66087;SDS011;52872;52.994;6.940;2022-11-20T07:58:21;13.38;;;9.50;;
66087;SDS011;52872;52.994;6.940;2022-11-20T08:00:48;13.40;;;9.98;;
66087;SDS011;52872;52.994;6.940;2022-11-20T08:03:15;13.50;;;10.57;;
66087;SDS011;52872;52.994;6.940;2022-11-20T08:05:49;15.18;;;11.00;;
66087;SDS011;52872;52.994;6.940;2022-11-20T08:08:16;15.10;;;10.57;;
66087;SDS011;52872;52.994;6.940;2022-11-20T08:10:43;13.63;;;9.98;;
66087;SDS011;52872;52.994;6.940;2022-11-20T08:13:10;15.73;;;10.85;;
66087;SDS011;52872;52.994;6.940;2022-11-20T08:15:55;14.13;;;10.55;;
66087;SDS011;52872;52.994;6.940;2022-11-20T08:18:22;16.83;;;12.32;;
66087;SDS011;52872;52.994;6.940;2022-11-20T08:20:56;12.23;;;9.55;;
66087;SDS011;52872;52.994;6.940;2022-11-20T08:23:23;14.15;;;10.23;;
66087;SDS011;52872;52.994;6.940;2022-11-20T08:25:50;14.52;;;9.57;;
66087;SDS011;52872;52.994;6.940;2022-11-20T08:28:17;12.93;;;9.25;;
66087;SDS011;52872;52.994;6.940;2022-11-20T08:30:47;11.90;;;9.38;;
66087;SDS011;52872;52.994;6.940;2022-11-20T08:33:14;13.68;;;9.32;;
66087;SDS011;52872;52.994;6.940;2022-11-20T08:35:41;13.32;;;10.05;;
66087;SDS011;52872;52.994;6.940;2022-11-20T08:38:09;12.10;;;9.15;;
66087;SDS011;52872;52.994;6.940;2022-11-20T08:40:36;12.20;;;9.23;;
66087;SDS011;52872;52.994;6.940;2022-11-20T08:43:03;12.95;;;9.80;;
66087;SDS011;52872;52.994;6.940;2022-11-20T08:45:30;13.20;;;9.23;;
66087;SDS011;52872;52.994;6.940;2022-11-20T08:48:00;12.23;;;8.82;;
66087;SDS011;52872;52.994;6.940;2022-11-20T08:50:28;12.07;;;9.18;;
66087;SDS011;52872;52.994;6.940;2022-11-20T08:53:02;12.23;;;8.90;;
66087;SDS011;52872;52.994;6.940;2022-11-20T08:55:32;11.57;;;9.02;;
66087;SDS011;52872;52.994;6.940;2022-11-20T08:58:04;11.90;;;8.70;;
66087;SDS011;52872;52.994;6.940;2022-11-20T09:00:34;13.00;;;9.43;;
66087;SDS011;52872;52.994;6.940;2022-11-20T09:03:01;14.63;;;9.27;;
66087;SDS011;52872;52.994;6.940;2022-11-20T09:05:28;10.05;;;8.60;;
66087;SDS011;52872;52.994;6.940;2022-11-20T09:07:58;12.38;;;9.10;;
66087;SDS011;52872;52.994;6.940;2022-11-20T09:10:26;11.18;;;8.35;;
66087;SDS011;52872;52.994;6.940;2022-11-20T09:12:53;11.95;;;8.73;;
66087;SDS011;52872;52.994;6.940;2022-11-20T09:15:21;10.68;;;8.35;;
66087;SDS011;52872;52.994;6.940;2022-11-20T09:20:22;10.95;;;8.75;;
66087;SDS011;52872;52.994;6.940;2022-11-20T09:22:49;11.50;;;8.32;;
66087;SDS011;52872;52.994;6.940;2022-11-20T09:25:16;10.32;;;8.70;;
66087;SDS011;52872;52.994;6.940;2022-11-20T09:27:44;11.60;;;8.63;;
66087;SDS011;52872;52.994;6.940;2022-11-20T09:30:15;12.60;;;8.88;;
66087;SDS011;52872;52.994;6.940;2022-11-20T09:32:42;12.85;;;8.95;;
66087;SDS011;52872;52.994;6.940;2022-11-20T09:35:09;11.80;;;8.93;;
66087;SDS011;52872;52.994;6.940;2022-11-20T09:37:36;11.88;;;8.38;;
66087;SDS011;52872;52.994;6.940;2022-11-20T09:40:04;11.75;;;9.43;;
66087;SDS011;52872;52.994;6.940;2022-11-20T09:50:34;10.63;;;8.32;;
66087;SDS011;52872;52.994;6.940;2022-11-20T09:55:35;9.82;;;8.38;;
66087;SDS011;52872;52.994;6.940;2022-11-20T09:58:05;11.88;;;8.25;;
66087;SDS011;52872;52.994;6.940;2022-11-20T10:00:34;12.02;;;9.00;;
66087;SDS011;52872;52.994;6.940;2022-11-20T10:03:24;10.93;;;9.00;;
66087;SDS011;52872;52.994;6.940;2022-11-20T10:06:03;11.38;;;8.68;;
66087;SDS011;52872;52.994;6.940;2022-11-20T10:08:39;9.77;;;8.77;;
66087;SDS011;52872;52.994;6.940;2022-11-20T10:11:37;13.40;;;8.88;;
66087;SDS011;52872;52.994;6.940;2022-11-20T10:30:17;11.20;;;8.10;;
66087;SDS011;52872;52.994;6.940;2022-11-20T10:32:48;11.50;;;8.15;;
66087;SDS011;52872;52.994;6.940;2022-11-20T10:35:39;10.70;;;7.93;;
66087;SDS011;52872;52.994;6.940;2022-11-20T10:38:25;9.68;;;7.72;;
66087;SDS011;52872;52.994;6.940;2022-11-20T10:41:07;9.57;;;7.50;;
66087;SDS011;52872;52.994;6.940;2022-11-20T10:43:54;10.30;;;7.65;;
66087;SDS011;52872;52.994;6.940;2022-11-20T10:46:30;10.30;;;7.47;;
66087;SDS011;52872;52.994;6.940;2022-11-20T10:49:04;9.18;;;7.57;;
66087;SDS011;52872;52.994;6.940;2022-11-20T10:51:48;10.35;;;8.43;;
66087;SDS011;52872;52.994;6.940;2022-11-20T10:54:33;9.63;;;6.97;;
66087;SDS011;52872;52.994;6.940;2022-11-20T10:57:29;10.18;;;8.05;;
66087;SDS011;52872;52.994;6.940;2022-11-20T11:00:20;10.73;;;7.35;;
66087;SDS011;52872;52.994;6.940;2022-11-20T11:02:49;9.50;;;7.53;;
66087;SDS011;52872;52.994;6.940;2022-11-20T11:07:56;8.90;;;7.10;;
66087;SDS011;52872;52.994;6.940;2022-11-20T11:13:29;8.73;;;7.70;;
66087;SDS011;52872;52.994;6.940;2022-11-20T11:15:57;10.70;;;8.15;;
66087;SDS011;52872;52.994;6.940;2022-11-20T11:23:36;14.35;;;12.90;;
66087;SDS011;52872;52.994;6.940;2022-11-20T11:26:06;12.15;;;8.20;;
66087;SDS011;52872;52.994;6.940;2022-11-20T11:29:01;10.82;;;7.65;;
66087;SDS011;52872;52.994;6.940;2022-11-20T11:31:31;14.27;;;8.10;;
66087;SDS011;52872;52.994;6.940;2022-11-20T11:34:16;16.75;;;13.77;;
66087;SDS011;52872;52.994;6.940;2022-11-20T11:39:23;12.90;;;11.02;;
66087;SDS011;52872;52.994;6.940;2022-11-20T11:41:53;15.43;;;13.30;;
66087;SDS011;52872;52.994;6.940;2022-11-20T11:44:21;10.55;;;8.18;;
66087;SDS011;52872;52.994;6.940;2022-11-20T11:47:11;13.45;;;12.05;;
66087;SDS011;52872;52.994;6.940;2022-11-20T11:53:21;8.60;;;7.70;;
66087;SDS011;52872;52.994;6.940;2022-11-20T12:04:05;8.15;;;6.55;;
66087;SDS011;52872;52.994;6.940;2022-11-20T12:06:39;7.45;;;6.72;;
66087;SDS011;52872;52.994;6.940;2022-11-20T12:09:10;8.55;;;6.53;;
66087;SDS011;52872;52.994;6.940;2022-11-20T12:11:49;8.43;;;6.25;;
66087;SDS011;52872;52.994;6.940;2022-11-20T12:14:37;7.80;;;6.85;;
66087;SDS011;52872;52.994;6.940;2022-11-20T12:17:08;7.72;;;6.13;;
66087;SDS011;52872;52.994;6.940;2022-11-20T12:19:38;7.38;;;6.63;;
66087;SDS011;52872;52.994;6.940;2022-11-20T12:30:21;6.45;;;5.47;;
66087;SDS011;52872;52.994;6.940;2022-11-20T12:50:38;7.85;;;6.32;;
66087;SDS011;52872;52.994;6.940;2022-11-20T12:53:35;8.68;;;5.88;;
66087;SDS011;52872;52.994;6.940;2022-11-20T13:04:52;11.27;;;9.43;;
66087;SDS011;52872;52.994;6.940;2022-11-20T13:07:22;10.63;;;8.23;;
66087;SDS011;52872;52.994;6.940;2022-11-20T13:09:53;11.50;;;8.57;;
66087;SDS011;52872;52.994;6.940;2022-11-20T13:15:16;24.05;;;13.05;;
66087;SDS011;52872;52.994;6.940;2022-11-20T13:18:08;12.48;;;9.85;;
66087;SDS011;52872;52.994;6.940;2022-11-20T13:20:40;10.00;;;9.00;;
66087;SDS011;52872;52.994;6.940;2022-11-20T13:23:22;9.05;;;7.82;;
66087;SDS011;52872;52.994;6.940;2022-11-20T13:25:51;10.02;;;8.43;;
66087;SDS011;52872;52.994;6.940;2022-11-20T13:28:29;13.18;;;7.82;;
66087;SDS011;52872;52.994;6.940;2022-11-20T13:30:57;9.15;;;8.18;;
66087;SDS011;52872;52.994;6.940;2022-11-20T13:33:32;8.55;;;7.68;;
66087;SDS011;52872;52.994;6.940;2022-11-20T13:36:06;9.40;;;8.15;;
66087;SDS011;52872;52.994;6.940;2022-11-20T13:38:47;11.07;;;8.07;;
66087;SDS011;52872;52.994;6.940;2022-11-20T13:41:34;14.23;;;8.60;;
66087;SDS011;52872;52.994;6.940;2022-11-20T13:44:14;14.75;;;11.02;;
66087;SDS011;52872;52.994;6.940;2022-11-20T13:47:04;12.75;;;8.63;;
66087;SDS011;52872;52.994;6.940;2022-11-20T13:49:51;18.58;;;10.93;;
66087;SDS011;52872;52.994;6.940;2022-11-20T13:52:34;9.07;;;7.47;;
66087;SDS011;52872;52.994;6.940;2022-11-20T14:00:56;12.43;;;9.88;;
66087;SDS011;52872;52.994;6.940;2022-11-20T14:03:40;13.40;;;12.20;;
66087;SDS011;52872;52.994;6.940;2022-11-20T14:06:28;10.45;;;8.75;;
66087;SDS011;52872;52.994;6.940;2022-11-20T14:08:58;10.23;;;7.95;;
66087;SDS011;52872;52.994;6.940;2022-11-20T14:11:29;12.23;;;8.95;;
66087;SDS011;52872;52.994;6.940;2022-11-20T14:13:58;13.48;;;9.32;;
66087;SDS011;52872;52.994;6.940;2022-11-20T14:16:34;13.07;;;8.75;;
66087;SDS011;52872;52.994;6.940;2022-11-20T14:19:19;11.35;;;9.15;;
66087;SDS011;52872;52.994;6.940;2022-11-20T14:21:55;11.00;;;8.55;;
66087;SDS011;52872;52.994;6.940;2022-11-20T14:24:40;11.80;;;8.65;;
66087;SDS011;52872;52.994;6.940;2022-11-20T14:27:14;10.85;;;8.85;;
66087;SDS011;52872;52.994;6.940;2022-11-20T14:29:47;12.80;;;9.80;;
66087;SDS011;52872;52.994;6.940;2022-11-20T14:32:19;12.35;;;8.57;;
66087;SDS011;52872;52.994;6.940;2022-11-20T14:34:52;13.18;;;9.70;;
66087;SDS011;52872;52.994;6.940;2022-11-20T14:37:20;12.85;;;9.25;;
66087;SDS011;52872;52.994;6.940;2022-11-20T14:39:54;12.02;;;8.27;;
66087;SDS011;52872;52.994;6.940;2022-11-20T14:42:23;10.45;;;8.43;;
66087;SDS011;52872;52.994;6.940;2022-11-20T14:44:54;11.00;;;8.15;;
66087;SDS011;52872;52.994;6.940;2022-11-20T14:47:24;11.35;;;8.23;;
66087;SDS011;52872;52.994;6.940;2022-11-20T14:49:53;11.55;;;8.30;;
66087;SDS011;52872;52.994;6.940;2022-11-20T14:52:23;12.18;;;8.95;;
66087;SDS011;52872;52.994;6.940;2022-11-20T14:54:52;11.43;;;8.32;;
66087;SDS011;52872;52.994;6.940;2022-11-20T14:57:26;9.82;;;7.82;;
66087;SDS011;52872;52.994;6.940;2022-11-20T15:02:42;11.60;;;7.78;;
66087;SDS011;52872;52.994;6.940;2022-11-20T15:05:11;11.45;;;8.50;;
66087;SDS011;52872;52.994;6.940;2022-11-20T15:07:39;14.50;;;9.98;;
66087;SDS011;52872;52.994;6.940;2022-11-20T15:10:13;11.27;;;8.23;;
66087;SDS011;52872;52.994;6.940;2022-11-20T15:12:54;11.02;;;7.75;;
66087;SDS011;52872;52.994;6.940;2022-11-20T15:15:33;10.65;;;8.55;;
66087;SDS011;52872;52.994;6.940;2022-11-20T15:18:11;11.82;;;9.07;;
66087;SDS011;52872;52.994;6.940;2022-11-20T15:20:41;12.38;;;8.07;;
66087;SDS011;52872;52.994;6.940;2022-11-20T15:23:13;13.75;;;12.20;;
66087;SDS011;52872;52.994;6.940;2022-11-20T15:25:42;11.23;;;8.60;;
66087;SDS011;52872;52.994;6.940;2022-11-20T15:28:22;11.30;;;8.27;;
66087;SDS011;52872;52.994;6.940;2022-11-20T15:31:03;10.80;;;8.88;;
66087;SDS011;52872;52.994;6.940;2022-11-20T15:33:30;13.00;;;9.52;;
66087;SDS011;52872;52.994;6.940;2022-11-20T15:35:59;13.35;;;8.77;;
66087;SDS011;52872;52.994;6.940;2022-11-20T15:38:26;14.13;;;10.27;;
66087;SDS011;52872;52.994;6.940;2022-11-20T15:40:53;11.32;;;8.80;;
66087;SDS011;52872;52.994;6.940;2022-11-20T15:43:20;13.25;;;11.45;;
66087;SDS011;52872;52.994;6.940;2022-11-20T15:45:50;11.93;;;9.20;;
66087;SDS011;52872;52.994;6.940;2022-11-20T15:49:05;13.52;;;9.13;;
66087;SDS011;52872;52.994;6.940;2022-11-20T15:53:59;12.07;;;9.43;;
66087;SDS011;52872;52.994;6.940;2022-11-20T15:56:26;10.68;;;8.93;;
66087;SDS011;52872;52.994;6.940;2022-11-20T15:58:52;11.93;;;8.93;;
66087;SDS011;52872;52.994;6.940;2022-11-20T16:01:23;13.20;;;9.30;;
66087;SDS011;52872;52.994;6.940;2022-11-20T16:03:50;11.35;;;9.07;;
66087;SDS011;52872;52.994;6.940;2022-11-20T16:06:17;13.20;;;9.52;;
66087;SDS011;52872;52.994;6.940;2022-11-20T16:08:43;11.77;;;9.45;;
66087;SDS011;52872;52.994;6.940;2022-11-20T16:11:14;11.95;;;9.18;;
66087;SDS011;52872;52.994;6.940;2022-11-20T16:13:42;12.23;;;9.27;;
66087;SDS011;52872;52.994;6.940;2022-11-20T16:16:28;11.60;;;9.45;;
66087;SDS011;52872;52.994;6.940;2022-11-20T16:18:58;13.00;;;9.80;;
66087;SDS011;52872;52.994;6.940;2022-11-20T16:21:26;12.18;;;9.02;;
66087;SDS011;52872;52.994;6.940;2022-11-20T16:23:58;9.93;;;7.03;;
66087;SDS011;52872;52.994;6.940;2022-11-20T16:26:25;11.82;;;9.60;;
66087;SDS011;52872;52.994;6.940;2022-11-20T16:28:52;11.82;;;9.38;;
66087;SDS011;52872;52.994;6.940;2022-11-20T16:31:20;14.15;;;10.30;;
66087;SDS011;52872;52.994;6.940;2022-11-20T16:33:51;13.00;;;10.07;;
66087;SDS011;52872;52.994;6.940;2022-11-20T16:36:20;11.98;;;9.63;;
66087;SDS011;52872;52.994;6.940;2022-11-20T16:38:51;11.88;;;9.90;;
66087;SDS011;52872;52.994;6.940;2022-11-20T16:41:23;13.27;;;10.65;;
66087;SDS011;52872;52.994;6.940;2022-11-20T16:43:55;14.10;;;9.85;;
66087;SDS011;52872;52.994;6.940;2022-11-20T16:46:27;12.63;;;10.55;;
66087;SDS011;52872;52.994;6.940;2022-11-20T16:49:02;13.38;;;9.75;;